Time;durP1;ratioP1;P1;durP2;ratioP2;P2;SDS_P1;SDS_P2;PMS_P1;PMS_P2;Temp;Humidity;BMP_temperature;BMP_pressure;BME280_temperature;BME280_humidity;BME280_pressure;Samples;Min_cycle;Max_cycle;Signal;HPM_P1;HPM_P2
2021/06/26 00:06:33;;;;;;;6.95;3.42;;;23.30;50.30;;;;;;20529392;28;80654;-72
2021/06/26 00:16:36;;;;;;;4.38;3.45;;;23.30;49.80;;;;;;20548250;28;80341;-72
2021/06/26 00:26:38;;;;;;;;;;;23.20;50.20;;;;;;20546950;28;81002;-72
2021/06/26 00:36:40;;;;;;;6.63;3.20;;;23.00;50.50;;;;;;20567696;28;80706;-72
2021/06/26 00:46:41;;;;;;;7.15;3.20;;;22.90;51.20;;;;;;20543503;28;80760;-72
2021/06/26 00:56:43;;;;;;;8.23;3.53;;;22.90;51.70;;;;;;20549954;28;81483;-72
2021/06/26 01:06:47;;;;;;;6.50;3.15;;;22.70;52.50;;;;;;20555498;28;80089;-71
2021/06/26 01:16:50;;;;;;;5.50;3.40;;;22.50;53.30;;;;;;20548631;28;81085;-71
2021/06/26 01:26:57;;;;;;;70.68;44.30;;;22.40;54.60;;;;;;20545834;28;80797;-71
2021/06/26 01:37:02;;;;;;;9.38;6.05;;;22.40;54.90;;;;;;20535746;28;83925;-72
2021/06/26 01:47:08;;;;;;;8.32;3.80;;;22.30;55.10;;;;;;20554803;28;83417;-71
2021/06/26 01:57:18;;;;;;;8.70;3.50;;;22.20;55.10;;;;;;20548714;28;81457;-70
2021/06/26 02:07:22;;;;;;;6.07;3.50;;;22.20;54.60;;;;;;20527484;28;81238;-71
2021/06/26 02:17:26;;;;;;;8.05;3.75;;;22.10;54.30;;;;;;20539035;28;81879;-71
2021/06/26 02:27:30;;;;;;;6.68;3.97;;;22.00;54.00;;;;;;20539957;28;80870;-69
2021/06/26 02:37:34;;;;;;;8.38;3.50;;;21.90;53.70;;;;;;20542372;28;81275;-72
2021/06/26 02:47:37;;;;;;;7.45;3.25;;;21.80;54.10;;;;;;20545392;28;80530;-72
2021/06/26 02:57:40;;;;;;;4.88;3.28;;;21.70;54.20;;;;;;20542050;28;82364;-72
2021/06/26 03:07:54;;;;;;;8.13;2.90;;;21.60;53.90;;;;;;20545259;28;81244;-71
2021/06/26 03:17:57;;;;;;;5.57;2.45;;;21.50;53.80;;;;;;20539621;28;82094;-72
2021/06/26 03:27:59;;;;;;;;;;;21.40;53.70;;;;;;20546196;28;81964;-70
2021/06/26 03:38:01;;;;;;;3.97;2.38;;;21.30;53.30;;;;;;20562109;28;79466;-70
2021/06/26 03:48:06;;;;;;;2.75;2.08;;;21.00;53.20;;;;;;20543979;28;80512;-71
2021/06/26 03:58:09;;;;;;;18.27;2.40;;;20.90;53.60;;;;;;20538220;28;80883;-70
2021/06/26 04:08:12;;;;;;;2.50;1.80;;;20.90;53.30;;;;;;20542359;28;81563;-71
2021/06/26 04:18:16;;;;;;;4.28;2.17;;;20.90;53.20;;;;;;20531744;28;81898;-71
2021/06/26 04:28:19;;;;;;;3.45;2.00;;;20.90;54.80;;;;;;20540914;28;82164;-70
2021/06/26 04:38:24;;;;;;;3.88;2.58;;;20.80;54.70;;;;;;20542575;28;80910;-71
2021/06/26 04:48:30;;;;;;;7.82;3.05;;;20.80;54.60;;;;;;20540881;28;82603;-71
2021/06/26 04:58:32;;;;;;;8.93;3.65;;;20.80;54.90;;;;;;20541896;28;83376;-71
2021/06/26 05:08:34;;;;;;;3.73;2.67;;;20.70;55.10;;;;;;20544391;28;83907;-71
2021/06/26 05:18:36;;;;;;;;;;;20.70;55.40;;;;;;20520583;28;83904;-72
2021/06/26 05:28:38;;;;;;;6.82;2.67;;;20.70;55.40;;;;;;20573411;28;83332;-72
2021/06/26 05:38:40;;;;;;;5.18;2.70;;;20.80;54.80;;;;;;20549018;28;80498;-72
2021/06/26 05:48:42;;;;;;;5.13;2.27;;;20.90;53.80;;;;;;20543752;28;83379;-71
2021/06/26 05:58:44;;;;;;;21.10;15.53;;;21.00;54.20;;;;;;20545781;28;81808;-69
2021/06/26 06:08:46;;;;;;;6.57;3.00;;;20.90;55.00;;;;;;20529614;28;82879;-71
2021/06/26 06:18:51;;;;;;;22.23;13.18;;;21.00;55.80;;;;;;20542033;28;82407;-71
2021/06/26 06:28:53;;;;;;;8.55;3.60;;;21.10;56.20;;;;;;20528781;28;82845;-71
2021/06/26 06:38:55;;;;;;;5.20;1.90;;;21.30;55.90;;;;;;20535976;28;83535;-71
2021/06/26 06:48:58;;;;;;;4.03;1.88;;;21.40;55.70;;;;;;20545627;28;81853;-71
2021/06/26 06:59:01;;;;;;;8.80;1.67;;;21.70;55.20;;;;;;20539957;28;80764;-71
2021/06/26 07:09:03;;;;;;;8.45;1.40;;;21.90;54.70;;;;;;20533304;28;82360;-70
2021/06/26 07:19:07;;;;;;;5.82;1.83;;;22.00;54.70;;;;;;20538971;28;80347;-70
2021/06/26 07:29:10;;;;;;;;;;;22.20;53.30;;;;;;20537994;28;81822;-71
2021/06/26 07:39:12;;;;;;;17.97;10.07;;;22.40;52.10;;;;;;20581246;28;82969;-70
2021/06/26 07:49:14;;;;;;;4.65;2.33;;;22.60;53.20;;;;;;20542412;28;82813;-71
2021/06/26 07:59:16;;;;;;;6.90;1.27;;;22.90;51.40;;;;;;20519936;28;82001;-69
2021/06/26 08:09:18;;;;;;;;;;;23.30;50.20;;;;;;20542937;28;82745;-71
2021/06/26 08:19:20;;;;;;;12.20;2.72;;;23.50;50.50;;;;;;20559141;28;82977;-72
2021/06/26 08:29:22;;;;;;;7.15;1.90;;;23.50;50.40;;;;;;20528448;28;80204;-71
2021/06/26 08:39:25;;;;;;;3.17;1.60;;;23.70;49.80;;;;;;20551919;28;81707;-72
2021/06/26 08:49:27;;;;;;;4.13;1.48;;;24.00;49.20;;;;;;20551471;28;80670;-70
2021/06/26 08:59:31;;;;;;;6.00;2.50;;;24.20;48.40;;;;;;20534040;28;81718;-69
2021/06/26 09:09:36;;;;;;;8.43;1.77;;;24.40;48.20;;;;;;20512982;28;81760;-70
2021/06/26 09:19:39;;;;;;;5.80;2.30;;;24.80;47.70;;;;;;20499747;28;80742;-68
2021/06/26 09:29:53;;;;;;;6.57;1.92;;;25.10;46.90;;;;;;20469364;28;80432;-74
2021/06/26 09:39:57;;;;;;;2.63;1.95;;;25.70;46.10;;;;;;20543382;28;80703;-74
2021/06/26 09:50:27;;;;;;;10.27;2.70;;;26.00;45.30;;;;;;20549385;28;81327;-76
2021/06/26 10:00:31;;;;;;;8.32;5.07;;;26.60;44.10;;;;;;20465033;28;80585;-72
2021/06/26 10:10:33;;;;;;;7.45;2.70;;;27.40;42.50;;;;;;20518840;28;80160;-72
2021/06/26 10:20:37;;;;;;;8.65;3.47;;;27.60;41.90;;;;;;20467632;28;80024;-72
2021/06/26 10:30:40;;;;;;;10.05;2.83;;;27.90;41.60;;;;;;20469154;28;80555;-73
2021/06/26 10:40:49;;;;;;;10.10;2.75;;;28.20;41.20;;;;;;20467905;28;80873;-73
2021/06/26 10:50:54;;;;;;;13.60;3.90;;;28.40;40.40;;;;;;20496344;28;80644;-73
2021/06/26 11:00:57;;;;;;;15.27;3.60;;;29.40;38.60;;;;;;20522945;28;80771;-73
2021/06/26 11:11:01;;;;;;;11.10;4.90;;;32.90;33.20;;;;;;20481261;28;80476;-74
2021/06/26 11:21:04;;;;;;;27.33;6.32;;;33.20;32.00;;;;;;20493124;28;80879;-74
2021/06/26 11:31:06;;;;;;;11.77;3.78;;;33.00;32.60;;;;;;20502280;28;80645;-74
2021/06/26 11:41:12;;;;;;;26.55;9.23;;;33.10;32.60;;;;;;20484714;28;81030;-74
2021/06/26 11:51:18;;;;;;;30.15;11.60;;;34.40;30.30;;;;;;20474165;28;81295;-74
2021/06/26 12:01:28;;;;;;;9.60;4.03;;;36.90;26.70;;;;;;20455951;28;82845;-73
2021/06/26 12:11:41;;;;;;;20.40;8.65;;;38.60;24.40;;;;;;20499650;28;85202;-75
2021/06/26 12:21:45;;;;;;;15.15;5.60;;;38.80;24.20;;;;;;20483748;28;81302;-74
2021/06/26 12:31:47;;;;;;;11.25;4.15;;;39.50;23.30;;;;;;20502025;28;80608;-74
2021/06/26 12:41:59;;;;;;;11.25;4.60;;;36.40;26.30;;;;;;20531845;28;80550;-73
2021/06/26 12:52:12;;;;;;;7.05;3.90;;;36.80;25.30;;;;;;20521745;28;80735;-74
2021/06/26 13:02:14;;;;;;;10.88;6.35;;;41.30;21.00;;;;;;20545088;28;80656;-73
2021/06/26 13:12:20;;;;;;;5.97;4.20;;;42.20;19.70;;;;;;20546792;28;80388;-73
2021/06/26 13:22:22;;;;;;;6.88;4.28;;;40.50;20.40;;;;;;20548279;28;80304;-73
2021/06/26 13:32:25;;;;;;;7.85;3.70;;;39.80;21.10;;;;;;20535455;28;81309;-74
2021/06/26 13:42:27;;;;;;;4.88;3.22;;;41.20;19.90;;;;;;20535694;28;81457;-73
2021/06/26 13:52:31;;;;;;;6.40;3.08;;;37.10;22.80;;;;;;20542170;28;80117;-73
2021/06/26 14:02:33;;;;;;;5.88;3.40;;;34.50;24.80;;;;;;20501485;28;81116;-73
2021/06/26 14:12:36;;;;;;;6.55;3.50;;;33.80;25.50;;;;;;20534471;28;84377;-74
2021/06/26 14:22:38;;;;;;;5.47;4.07;;;32.90;26.10;;;;;;20512339;28;84371;-74
2021/06/26 14:32:39;;;;;;;8.20;3.95;;;33.20;26.20;;;;;;20525792;28;82721;-74
2021/06/26 14:42:41;;;;;;;3.97;2.78;;;33.40;26.50;;;;;;20521419;28;80833;-74
2021/06/26 14:52:42;;;;;;;6.38;1.90;;;32.80;27.00;;;;;;20526140;28;80648;-74
2021/06/26 15:02:44;;;;;;;8.35;3.45;;;32.50;26.80;;;;;;20530220;28;81604;-73
2021/06/26 15:12:45;;;;;;;15.52;5.75;;;32.30;26.90;;;;;;20534673;28;80682;-76
2021/06/26 15:22:49;;;;;;;8.05;3.20;;;31.40;28.80;;;;;;20524939;28;80725;-75
2021/06/26 15:32:51;;;;;;;12.38;3.60;;;31.10;28.70;;;;;;20531255;28;80736;-74
2021/06/26 15:42:53;;;;;;;34.53;6.78;;;31.10;29.20;;;;;;20536689;28;81151;-74
2021/06/26 15:52:55;;;;;;;15.27;4.40;;;30.20;32.10;;;;;;20515208;28;81548;-73
2021/06/26 16:02:57;;;;;;;13.63;3.78;;;29.90;31.50;;;;;;20529464;28;80845;-74
2021/06/26 16:12:58;;;;;;;10.27;3.90;;;29.90;31.10;;;;;;20527571;28;80857;-74
2021/06/26 16:23:00;;;;;;;10.60;4.53;;;30.00;31.40;;;;;;20518662;28;81074;-73
2021/06/26 16:33:02;;;;;;;11.75;7.05;;;30.30;30.90;;;;;;20489921;28;81386;-73
2021/06/26 16:43:05;;;;;;;72.03;19.48;;;30.00;31.70;;;;;;20503188;28;81486;-73
2021/06/26 16:53:07;;;;;;;17.52;4.93;;;29.60;37.00;;;;;;20481269;28;83336;-72
2021/06/26 17:03:09;;;;;;;19.30;4.90;;;29.40;33.60;;;;;;20496917;28;83075;-73
2021/06/26 17:13:13;;;;;;;7.93;3.13;;;29.30;33.60;;;;;;20500472;28;81097;-75
2021/06/26 17:23:16;;;;;;;18.20;3.17;;;29.50;32.20;;;;;;20510785;28;80575;-72
2021/06/26 17:33:20;;;;;;;6.85;2.85;;;29.60;32.40;;;;;;20542182;28;81215;-74
2021/06/26 17:43:23;;;;;;;7.05;2.85;;;29.40;32.10;;;;;;20540484;28;81383;-76
2021/06/26 17:53:25;;;;;;;5.78;2.95;;;29.40;30.80;;;;;;20548919;28;81736;-74
2021/06/26 18:03:27;;;;;;;6.20;2.50;;;29.30;31.30;;;;;;20543335;28;81097;-74
2021/06/26 18:13:29;;;;;;;5.70;2.35;;;29.20;31.20;;;;;;20483172;28;81573;-72
2021/06/26 18:23:32;;;;;;;7.80;2.38;;;28.80;32.80;;;;;;20533148;28;80412;-71
2021/06/26 18:33:34;;;;;;;5.55;2.50;;;28.70;32.70;;;;;;20515857;28;80352;-70
2021/06/26 18:43:36;;;;;;;3.47;2.38;;;28.50;31.90;;;;;;20529147;28;80116;-75
2021/06/26 18:53:38;;;;;;;7.32;3.63;;;28.40;31.70;;;;;;20514055;28;80879;-73
2021/06/26 19:03:40;;;;;;;10.30;5.40;;;28.20;32.50;;;;;;20538220;28;80941;-74
2021/06/26 19:13:42;;;;;;;15.07;5.97;;;27.90;33.00;;;;;;20528414;28;80745;-74
2021/06/26 19:23:44;;;;;;;12.52;7.18;;;27.50;33.50;;;;;;20539826;28;80888;-74
2021/06/26 19:33:45;;;;;;;8.73;5.47;;;27.60;34.00;;;;;;20535561;28;80687;-73
2021/06/26 19:43:47;;;;;;;9.38;5.03;;;27.50;33.50;;;;;;20532380;28;80783;-74
2021/06/26 19:53:49;;;;;;;12.80;6.90;;;27.50;33.20;;;;;;20544642;28;80646;-74
2021/06/26 20:03:50;;;;;;;12.88;9.05;;;27.40;33.50;;;;;;20541684;28;80501;-73
2021/06/26 20:13:52;;;;;;;14.05;9.60;;;27.30;34.00;;;;;;20542479;28;81176;-69
2021/06/26 20:23:58;;;;;;;15.77;7.38;;;27.20;33.70;;;;;;20538737;28;80502;-69
2021/06/26 20:34:00;;;;;;;8.00;6.05;;;27.10;34.20;;;;;;20567599;28;83836;-73
2021/06/26 20:44:01;;;;;;;12.98;8.43;;;27.00;35.20;;;;;;20545794;28;80659;-75
2021/06/26 20:54:04;;;;;;;11.00;8.20;;;26.90;34.50;;;;;;20549708;28;81527;-75
2021/06/26 21:04:07;;;;;;;10.45;7.20;;;26.80;35.00;;;;;;20548266;28;80909;-75
2021/06/26 21:14:09;;;;;;;10.63;5.28;;;26.70;35.10;;;;;;20525561;28;83252;-77
2021/06/26 21:24:11;;;;;;;24.10;13.15;;;26.60;35.40;;;;;;20543228;28;81269;-77
2021/06/26 21:34:13;;;;;;;7.68;4.32;;;26.50;35.80;;;;;;20518577;28;83927;-78
2021/06/26 21:44:14;;;;;;;7.68;5.32;;;26.40;35.90;;;;;;20536043;28;85582;-79
2021/06/26 21:54:16;;;;;;;17.63;10.80;;;26.40;35.70;;;;;;20534168;28;81902;-78
2021/06/26 22:04:18;;;;;;;9.25;7.75;;;26.30;35.70;;;;;;20536586;28;82856;-77
2021/06/26 22:14:20;;;;;;;5.63;3.53;;;26.20;35.80;;;;;;20549643;28;85557;-76
2021/06/26 22:24:22;;;;;;;10.38;8.05;;;25.90;36.20;;;;;;20526985;28;80537;-79
2021/06/26 22:34:24;;;;;;;11.25;6.20;;;25.90;36.30;;;;;;20537057;28;82507;-75
2021/06/26 22:44:26;;;;;;;14.15;8.55;;;25.60;36.70;;;;;;20546597;28;81560;-78
2021/06/26 22:54:29;;;;;;;16.42;9.68;;;25.50;36.00;;;;;;20543506;28;80137;-79
2021/06/26 23:04:31;;;;;;;11.32;3.22;;;25.40;36.60;;;;;;20539054;28;80816;-79
2021/06/26 23:14:32;;;;;;;7.28;3.42;;;25.40;37.00;;;;;;20535527;28;82767;-78
2021/06/26 23:24:35;;;;;;;8.02;3.50;;;25.20;37.00;;;;;;20553143;28;80787;-76
2021/06/26 23:34:37;;;;;;;10.00;2.97;;;25.10;36.80;;;;;;20533783;28;82499;-77
2021/06/26 23:44:39;;;;;;;6.68;3.10;;;24.90;37.00;;;;;;20491871;28;80723;-81
2021/06/26 23:54:41;;;;;;;;;;;24.70;38.00;;;;;;20469450;28;80633;-79
